sensor_id;sensor_type;location;lat;lon;timestamp;P1;durP1;ratioP1;P2;durP2;ratioP2
75297;SDS011;63896;45.990;18.688;2023-06-10T00:00:27;8.23;;;5.60;;
75297;SDS011;63896;45.990;18.688;2023-06-10T00:03:30;9.38;;;5.38;;
75297;SDS011;63896;45.990;18.688;2023-06-10T00:06:33;9.25;;;5.30;;
75297;SDS011;63896;45.990;18.688;2023-06-10T00:09:38;10.00;;;5.35;;
75297;SDS011;63896;45.990;18.688;2023-06-10T00:12:41;7.43;;;4.95;;
75297;SDS011;63896;45.990;18.688;2023-06-10T00:15:44;9.43;;;5.23;;
75297;SDS011;63896;45.990;18.688;2023-06-10T00:18:47;10.52;;;5.20;;
75297;SDS011;63896;45.990;18.688;2023-06-10T00:21:51;8.70;;;5.47;;
75297;SDS011;63896;45.990;18.688;2023-06-10T00:24:55;9.02;;;5.65;;
75297;SDS011;63896;45.990;18.688;2023-06-10T00:27:59;9.35;;;5.70;;
75297;SDS011;63896;45.990;18.688;2023-06-10T00:31:04;10.20;;;6.00;;
75297;SDS011;63896;45.990;18.688;2023-06-10T00:34:07;10.18;;;6.00;;
75297;SDS011;63896;45.990;18.688;2023-06-10T00:37:11;12.90;;;6.20;;
75297;SDS011;63896;45.990;18.688;2023-06-10T00:40:13;10.60;;;6.47;;
75297;SDS011;63896;45.990;18.688;2023-06-10T00:43:16;12.43;;;6.60;;
75297;SDS011;63896;45.990;18.688;2023-06-10T00:46:20;14.17;;;6.57;;
75297;SDS011;63896;45.990;18.688;2023-06-10T00:49:24;11.32;;;6.50;;
75297;SDS011;63896;45.990;18.688;2023-06-10T00:52:27;14.20;;;6.72;;
75297;SDS011;63896;45.990;18.688;2023-06-10T00:55:32;10.88;;;6.18;;
75297;SDS011;63896;45.990;18.688;2023-06-10T00:58:37;13.05;;;6.43;;
75297;SDS011;63896;45.990;18.688;2023-06-10T01:01:41;24.00;;;7.67;;
75297;SDS011;63896;45.990;18.688;2023-06-10T01:04:47;11.15;;;6.35;;
75297;SDS011;63896;45.990;18.688;2023-06-10T01:07:56;12.43;;;7.28;;
75297;SDS011;63896;45.990;18.688;2023-06-10T01:11:07;13.00;;;7.30;;
75297;SDS011;63896;45.990;18.688;2023-06-10T01:14:13;14.02;;;8.00;;
75297;SDS011;63896;45.990;18.688;2023-06-10T01:17:19;12.00;;;7.17;;
75297;SDS011;63896;45.990;18.688;2023-06-10T01:20:24;15.52;;;8.70;;
75297;SDS011;63896;45.990;18.688;2023-06-10T01:23:31;18.85;;;9.02;;
75297;SDS011;63896;45.990;18.688;2023-06-10T01:26:34;17.40;;;9.40;;
75297;SDS011;63896;45.990;18.688;2023-06-10T01:29:43;18.83;;;9.40;;
75297;SDS011;63896;45.990;18.688;2023-06-10T01:33:02;16.37;;;9.60;;
75297;SDS011;63896;45.990;18.688;2023-06-10T01:36:05;18.90;;;9.38;;
75297;SDS011;63896;45.990;18.688;2023-06-10T01:39:10;14.85;;;9.13;;
75297;SDS011;63896;45.990;18.688;2023-06-10T01:42:19;18.83;;;9.43;;
75297;SDS011;63896;45.990;18.688;2023-06-10T01:45:26;15.55;;;8.77;;
75297;SDS011;63896;45.990;18.688;2023-06-10T01:48:29;15.00;;;8.43;;
75297;SDS011;63896;45.990;18.688;2023-06-10T01:51:32;19.75;;;9.45;;
75297;SDS011;63896;45.990;18.688;2023-06-10T01:54:34;12.70;;;8.70;;
75297;SDS011;63896;45.990;18.688;2023-06-10T01:57:37;14.75;;;8.07;;
75297;SDS011;63896;45.990;18.688;2023-06-10T02:00:40;15.30;;;9.05;;
75297;SDS011;63896;45.990;18.688;2023-06-10T02:03:43;16.10;;;8.67;;
75297;SDS011;63896;45.990;18.688;2023-06-10T02:06:46;18.15;;;9.18;;
75297;SDS011;63896;45.990;18.688;2023-06-10T02:09:49;19.42;;;9.00;;
75297;SDS011;63896;45.990;18.688;2023-06-10T02:12:52;18.70;;;9.07;;
75297;SDS011;63896;45.990;18.688;2023-06-10T02:15:55;15.15;;;8.70;;
75297;SDS011;63896;45.990;18.688;2023-06-10T02:18:58;19.63;;;8.47;;
75297;SDS011;63896;45.990;18.688;2023-06-10T02:22:02;18.17;;;8.57;;
75297;SDS011;63896;45.990;18.688;2023-06-10T02:25:05;15.30;;;8.80;;
75297;SDS011;63896;45.990;18.688;2023-06-10T02:28:09;15.60;;;8.82;;
75297;SDS011;63896;45.990;18.688;2023-06-10T02:31:12;16.50;;;9.70;;
75297;SDS011;63896;45.990;18.688;2023-06-10T02:34:16;17.90;;;9.53;;
75297;SDS011;63896;45.990;18.688;2023-06-10T02:37:19;22.98;;;9.65;;
75297;SDS011;63896;45.990;18.688;2023-06-10T02:40:23;16.75;;;9.90;;
75297;SDS011;63896;45.990;18.688;2023-06-10T02:43:26;15.98;;;9.35;;
75297;SDS011;63896;45.990;18.688;2023-06-10T02:46:29;15.80;;;9.45;;
75297;SDS011;63896;45.990;18.688;2023-06-10T02:49:32;14.30;;;8.63;;
75297;SDS011;63896;45.990;18.688;2023-06-10T02:52:35;14.68;;;8.05;;
75297;SDS011;63896;45.990;18.688;2023-06-10T02:55:39;12.35;;;8.18;;
75297;SDS011;63896;45.990;18.688;2023-06-10T02:58:46;15.48;;;8.82;;
75297;SDS011;63896;45.990;18.688;2023-06-10T03:01:53;14.32;;;8.93;;
75297;SDS011;63896;45.990;18.688;2023-06-10T03:04:58;16.63;;;8.60;;
75297;SDS011;63896;45.990;18.688;2023-06-10T03:08:01;15.77;;;8.68;;
75297;SDS011;63896;45.990;18.688;2023-06-10T03:11:05;12.13;;;8.02;;
75297;SDS011;63896;45.990;18.688;2023-06-10T03:14:09;11.40;;;7.60;;
75297;SDS011;63896;45.990;18.688;2023-06-10T03:17:12;23.08;;;6.93;;
75297;SDS011;63896;45.990;18.688;2023-06-10T03:20:17;23.80;;;7.40;;
75297;SDS011;63896;45.990;18.688;2023-06-10T03:23:26;11.90;;;6.35;;
75297;SDS011;63896;45.990;18.688;2023-06-10T03:26:29;16.33;;;7.30;;
75297;SDS011;63896;45.990;18.688;2023-06-10T03:29:33;11.65;;;7.40;;
75297;SDS011;63896;45.990;18.688;2023-06-10T03:32:39;12.73;;;7.82;;
75297;SDS011;63896;45.990;18.688;2023-06-10T03:35:45;12.00;;;7.77;;
75297;SDS011;63896;45.990;18.688;2023-06-10T03:38:48;13.93;;;7.65;;
75297;SDS011;63896;45.990;18.688;2023-06-10T03:41:54;18.30;;;8.32;;
75297;SDS011;63896;45.990;18.688;2023-06-10T03:45:01;14.30;;;8.40;;
75297;SDS011;63896;45.990;18.688;2023-06-10T03:48:07;11.75;;;7.68;;
75297;SDS011;63896;45.990;18.688;2023-06-10T03:51:20;18.70;;;8.87;;
75297;SDS011;63896;45.990;18.688;2023-06-10T03:54:23;15.55;;;7.70;;
75297;SDS011;63896;45.990;18.688;2023-06-10T03:57:26;10.75;;;6.40;;
75297;SDS011;63896;45.990;18.688;2023-06-10T04:00:29;10.50;;;6.60;;
75297;SDS011;63896;45.990;18.688;2023-06-10T04:03:32;12.75;;;6.50;;
75297;SDS011;63896;45.990;18.688;2023-06-10T04:06:35;10.63;;;7.00;;
75297;SDS011;63896;45.990;18.688;2023-06-10T04:09:39;12.35;;;7.30;;
75297;SDS011;63896;45.990;18.688;2023-06-10T04:12:42;10.95;;;6.72;;
75297;SDS011;63896;45.990;18.688;2023-06-10T04:15:46;10.45;;;7.13;;
75297;SDS011;63896;45.990;18.688;2023-06-10T04:18:51;13.60;;;7.85;;
75297;SDS011;63896;45.990;18.688;2023-06-10T04:21:55;11.37;;;7.53;;
75297;SDS011;63896;45.990;18.688;2023-06-10T04:24:58;14.77;;;7.75;;
75297;SDS011;63896;45.990;18.688;2023-06-10T04:28:01;14.35;;;8.35;;
75297;SDS011;63896;45.990;18.688;2023-06-10T04:31:06;21.00;;;8.18;;
75297;SDS011;63896;45.990;18.688;2023-06-10T04:34:09;12.35;;;7.75;;
75297;SDS011;63896;45.990;18.688;2023-06-10T04:37:12;9.37;;;7.07;;
75297;SDS011;63896;45.990;18.688;2023-06-10T04:40:15;10.40;;;6.97;;
75297;SDS011;63896;45.990;18.688;2023-06-10T04:43:19;10.15;;;6.63;;
75297;SDS011;63896;45.990;18.688;2023-06-10T04:46:23;10.88;;;6.30;;
75297;SDS011;63896;45.990;18.688;2023-06-10T04:49:26;8.30;;;6.10;;
75297;SDS011;63896;45.990;18.688;2023-06-10T04:52:29;10.47;;;6.70;;
75297;SDS011;63896;45.990;18.688;2023-06-10T04:55:32;11.85;;;6.40;;
75297;SDS011;63896;45.990;18.688;2023-06-10T04:58:38;17.58;;;6.90;;
75297;SDS011;63896;45.990;18.688;2023-06-10T05:01:41;10.77;;;6.65;;
75297;SDS011;63896;45.990;18.688;2023-06-10T05:04:44;12.15;;;5.93;;
75297;SDS011;63896;45.990;18.688;2023-06-10T05:07:47;10.27;;;6.33;;
75297;SDS011;63896;45.990;18.688;2023-06-10T05:10:50;15.02;;;7.72;;
75297;SDS011;63896;45.990;18.688;2023-06-10T05:13:52;10.48;;;7.68;;
75297;SDS011;63896;45.990;18.688;2023-06-10T05:16:55;13.88;;;7.03;;
75297;SDS011;63896;45.990;18.688;2023-06-10T05:19:58;10.57;;;7.00;;
75297;SDS011;63896;45.990;18.688;2023-06-10T05:23:01;13.33;;;6.63;;
75297;SDS011;63896;45.990;18.688;2023-06-10T05:26:04;11.52;;;7.25;;
75297;SDS011;63896;45.990;18.688;2023-06-10T05:29:07;15.38;;;6.82;;
75297;SDS011;63896;45.990;18.688;2023-06-10T05:32:11;12.30;;;6.05;;
75297;SDS011;63896;45.990;18.688;2023-06-10T05:35:14;9.70;;;6.35;;
75297;SDS011;63896;45.990;18.688;2023-06-10T05:38:33;12.70;;;5.97;;
75297;SDS011;63896;45.990;18.688;2023-06-10T05:41:36;9.27;;;6.10;;
75297;SDS011;63896;45.990;18.688;2023-06-10T05:44:39;9.93;;;6.38;;
75297;SDS011;63896;45.990;18.688;2023-06-10T05:47:42;9.20;;;6.30;;
75297;SDS011;63896;45.990;18.688;2023-06-10T05:50:45;10.70;;;6.00;;
75297;SDS011;63896;45.990;18.688;2023-06-10T05:53:50;9.50;;;5.60;;
75297;SDS011;63896;45.990;18.688;2023-06-10T05:56:53;8.45;;;5.78;;
75297;SDS011;63896;45.990;18.688;2023-06-10T05:59:56;11.82;;;5.43;;
75297;SDS011;63896;45.990;18.688;2023-06-10T06:02:59;10.35;;;5.18;;
75297;SDS011;63896;45.990;18.688;2023-06-10T06:06:02;6.93;;;5.25;;
75297;SDS011;63896;45.990;18.688;2023-06-10T06:09:06;8.23;;;5.53;;
75297;SDS011;63896;45.990;18.688;2023-06-10T06:12:23;7.40;;;5.68;;
75297;SDS011;63896;45.990;18.688;2023-06-10T06:15:26;9.60;;;5.78;;
75297;SDS011;63896;45.990;18.688;2023-06-10T06:18:29;11.45;;;6.30;;
75297;SDS011;63896;45.990;18.688;2023-06-10T06:21:32;10.68;;;5.88;;
75297;SDS011;63896;45.990;18.688;2023-06-10T06:24:34;6.07;;;4.97;;
75297;SDS011;63896;45.990;18.688;2023-06-10T06:27:37;8.98;;;5.15;;
75297;SDS011;63896;45.990;18.688;2023-06-10T06:30:42;8.02;;;4.53;;
75297;SDS011;63896;45.990;18.688;2023-06-10T06:34:05;10.82;;;5.10;;
75297;SDS011;63896;45.990;18.688;2023-06-10T06:37:08;10.35;;;4.82;;
75297;SDS011;63896;45.990;18.688;2023-06-10T06:40:15;6.70;;;4.87;;
75297;SDS011;63896;45.990;18.688;2023-06-10T06:43:18;12.30;;;5.20;;
75297;SDS011;63896;45.990;18.688;2023-06-10T06:46:50;10.85;;;5.00;;
75297;SDS011;63896;45.990;18.688;2023-06-10T06:49:53;8.73;;;5.80;;
75297;SDS011;63896;45.990;18.688;2023-06-10T06:52:56;7.10;;;5.40;;
75297;SDS011;63896;45.990;18.688;2023-06-10T06:55:59;8.53;;;5.50;;
75297;SDS011;63896;45.990;18.688;2023-06-10T06:59:02;9.00;;;5.22;;
75297;SDS011;63896;45.990;18.688;2023-06-10T07:02:06;6.10;;;5.03;;
75297;SDS011;63896;45.990;18.688;2023-06-10T07:05:13;6.95;;;4.72;;
75297;SDS011;63896;45.990;18.688;2023-06-10T07:08:19;7.22;;;5.38;;
75297;SDS011;63896;45.990;18.688;2023-06-10T07:11:22;6.60;;;5.30;;
75297;SDS011;63896;45.990;18.688;2023-06-10T07:14:25;6.40;;;4.88;;
75297;SDS011;63896;45.990;18.688;2023-06-10T07:17:28;9.93;;;5.32;;
75297;SDS011;63896;45.990;18.688;2023-06-10T07:20:31;8.77;;;4.68;;
75297;SDS011;63896;45.990;18.688;2023-06-10T07:23:34;9.20;;;5.22;;
75297;SDS011;63896;45.990;18.688;2023-06-10T07:26:37;7.20;;;5.47;;
75297;SDS011;63896;45.990;18.688;2023-06-10T07:29:39;6.22;;;5.20;;
75297;SDS011;63896;45.990;18.688;2023-06-10T07:32:42;6.28;;;5.10;;
75297;SDS011;63896;45.990;18.688;2023-06-10T07:35:46;7.30;;;5.07;;
75297;SDS011;63896;45.990;18.688;2023-06-10T07:38:49;7.60;;;5.10;;
75297;SDS011;63896;45.990;18.688;2023-06-10T07:41:52;7.70;;;5.23;;
75297;SDS011;63896;45.990;18.688;2023-06-10T07:44:56;7.72;;;5.55;;
75297;SDS011;63896;45.990;18.688;2023-06-10T07:47:59;9.02;;;5.72;;
75297;SDS011;63896;45.990;18.688;2023-06-10T07:51:10;7.47;;;5.35;;
75297;SDS011;63896;45.990;18.688;2023-06-10T07:54:13;7.43;;;5.68;;
75297;SDS011;63896;45.990;18.688;2023-06-10T07:57:19;7.43;;;6.60;;
75297;SDS011;63896;45.990;18.688;2023-06-10T08:00:22;7.95;;;5.88;;
75297;SDS011;63896;45.990;18.688;2023-06-10T08:03:24;8.27;;;7.15;;
75297;SDS011;63896;45.990;18.688;2023-06-10T08:06:28;7.55;;;5.38;;
75297;SDS011;63896;45.990;18.688;2023-06-10T08:09:31;8.05;;;5.72;;
75297;SDS011;63896;45.990;18.688;2023-06-10T08:12:34;6.47;;;5.37;;
75297;SDS011;63896;45.990;18.688;2023-06-10T08:15:37;7.47;;;5.60;;
75297;SDS011;63896;45.990;18.688;2023-06-10T08:18:40;6.25;;;5.50;;
75297;SDS011;63896;45.990;18.688;2023-06-10T08:21:43;7.05;;;5.50;;
75297;SDS011;63896;45.990;18.688;2023-06-10T08:24:46;6.78;;;5.07;;
75297;SDS011;63896;45.990;18.688;2023-06-10T08:27:50;6.07;;;5.37;;
75297;SDS011;63896;45.990;18.688;2023-06-10T08:30:54;6.47;;;5.50;;
75297;SDS011;63896;45.990;18.688;2023-06-10T08:33:58;6.18;;;4.85;;
75297;SDS011;63896;45.990;18.688;2023-06-10T08:37:02;5.40;;;4.30;;
75297;SDS011;63896;45.990;18.688;2023-06-10T08:40:05;6.03;;;4.68;;
75297;SDS011;63896;45.990;18.688;2023-06-10T08:43:22;5.60;;;5.00;;
75297;SDS011;63896;45.990;18.688;2023-06-10T08:46:39;5.90;;;5.00;;
75297;SDS011;63896;45.990;18.688;2023-06-10T08:49:47;6.32;;;5.30;;
75297;SDS011;63896;45.990;18.688;2023-06-10T08:52:50;5.25;;;4.75;;
75297;SDS011;63896;45.990;18.688;2023-06-10T08:55:57;5.22;;;4.72;;
75297;SDS011;63896;45.990;18.688;2023-06-10T08:59:19;6.03;;;4.03;;
75297;SDS011;63896;45.990;18.688;2023-06-10T09:02:23;6.57;;;4.55;;
75297;SDS011;63896;45.990;18.688;2023-06-10T09:05:27;4.78;;;4.13;;
75297;SDS011;63896;45.990;18.688;2023-06-10T09:08:32;6.95;;;4.50;;
75297;SDS011;63896;45.990;18.688;2023-06-10T09:11:37;5.28;;;3.92;;
75297;SDS011;63896;45.990;18.688;2023-06-10T09:14:41;3.83;;;3.30;;
75297;SDS011;63896;45.990;18.688;2023-06-10T09:17:46;3.92;;;3.33;;
75297;SDS011;63896;45.990;18.688;2023-06-10T09:20:50;4.68;;;3.13;;
75297;SDS011;63896;45.990;18.688;2023-06-10T09:23:53;6.75;;;3.00;;
75297;SDS011;63896;45.990;18.688;2023-06-10T09:27:03;3.20;;;2.90;;
75297;SDS011;63896;45.990;18.688;2023-06-10T09:30:08;2.60;;;2.40;;
75297;SDS011;63896;45.990;18.688;2023-06-10T09:33:13;4.30;;;2.60;;
75297;SDS011;63896;45.990;18.688;2023-06-10T09:36:23;3.25;;;2.60;;
75297;SDS011;63896;45.990;18.688;2023-06-10T09:39:26;3.75;;;2.28;;
75297;SDS011;63896;45.990;18.688;2023-06-10T09:42:31;2.63;;;2.42;;
75297;SDS011;63896;45.990;18.688;2023-06-10T09:45:38;2.40;;;2.20;;
75297;SDS011;63896;45.990;18.688;2023-06-10T09:48:42;5.35;;;2.50;;
75297;SDS011;63896;45.990;18.688;2023-06-10T09:51:49;3.15;;;2.70;;
75297;SDS011;63896;45.990;18.688;2023-06-10T09:54:58;3.45;;;1.95;;
75297;SDS011;63896;45.990;18.688;2023-06-10T09:58:02;2.80;;;2.53;;
75297;SDS011;63896;45.990;18.688;2023-06-10T10:01:08;3.10;;;2.00;;
75297;SDS011;63896;45.990;18.688;2023-06-10T10:04:12;2.60;;;2.40;;
75297;SDS011;63896;45.990;18.688;2023-06-10T10:07:15;2.60;;;2.40;;
75297;SDS011;63896;45.990;18.688;2023-06-10T10:10:19;2.67;;;2.47;;
75297;SDS011;63896;45.990;18.688;2023-06-10T10:13:24;3.78;;;2.75;;
75297;SDS011;63896;45.990;18.688;2023-06-10T10:16:30;2.47;;;2.27;;
75297;SDS011;63896;45.990;18.688;2023-06-10T10:19:48;2.20;;;2.00;;
75297;SDS011;63896;45.990;18.688;2023-06-10T10:22:53;3.05;;;2.00;;
75297;SDS011;63896;45.990;18.688;2023-06-10T10:26:00;1.90;;;1.60;;
75297;SDS011;63896;45.990;18.688;2023-06-10T10:29:24;1.90;;;1.70;;
75297;SDS011;63896;45.990;18.688;2023-06-10T10:36:09;2.30;;;2.10;;
75297;SDS011;63896;45.990;18.688;2023-06-10T10:39:13;4.50;;;1.55;;
75297;SDS011;63896;45.990;18.688;2023-06-10T10:42:17;3.83;;;1.80;;
75297;SDS011;63896;45.990;18.688;2023-06-10T10:45:21;1.77;;;1.67;;
75297;SDS011;63896;45.990;18.688;2023-06-10T10:48:24;1.70;;;1.60;;
75297;SDS011;63896;45.990;18.688;2023-06-10T10:51:29;2.30;;;1.85;;
75297;SDS011;63896;45.990;18.688;2023-06-10T10:54:36;2.97;;;2.03;;
75297;SDS011;63896;45.990;18.688;2023-06-10T10:57:43;1.55;;;1.40;;
75297;SDS011;63896;45.990;18.688;2023-06-10T11:00:46;1.70;;;1.60;;
75297;SDS011;63896;45.990;18.688;2023-06-10T11:03:51;1.80;;;1.70;;
75297;SDS011;63896;45.990;18.688;2023-06-10T11:07:05;2.13;;;1.65;;
75297;SDS011;63896;45.990;18.688;2023-06-10T11:10:10;1.90;;;1.80;;
75297;SDS011;63896;45.990;18.688;2023-06-10T11:13:19;2.17;;;1.80;;
75297;SDS011;63896;45.990;18.688;2023-06-10T11:16:23;3.15;;;1.50;;
75297;SDS011;63896;45.990;18.688;2023-06-10T11:19:33;1.43;;;1.30;;
75297;SDS011;63896;45.990;18.688;2023-06-10T11:22:57;1.60;;;1.50;;
75297;SDS011;63896;45.990;18.688;2023-06-10T11:26:17;1.80;;;1.70;;
75297;SDS011;63896;45.990;18.688;2023-06-10T11:29:37;1.48;;;1.38;;
75297;SDS011;63896;45.990;18.688;2023-06-10T11:32:40;1.92;;;1.80;;
75297;SDS011;63896;45.990;18.688;2023-06-10T11:35:45;1.93;;;1.00;;
75297;SDS011;63896;45.990;18.688;2023-06-10T11:38:49;1.80;;;1.70;;
75297;SDS011;63896;45.990;18.688;2023-06-10T11:41:55;2.25;;;1.80;;
75297;SDS011;63896;45.990;18.688;2023-06-10T11:44:59;1.15;;;1.00;;
75297;SDS011;63896;45.990;18.688;2023-06-10T11:48:05;2.20;;;1.30;;
75297;SDS011;63896;45.990;18.688;2023-06-10T11:51:08;2.00;;;1.43;;
75297;SDS011;63896;45.990;18.688;2023-06-10T11:54:11;4.88;;;1.30;;
75297;SDS011;63896;45.990;18.688;2023-06-10T11:57:13;3.28;;;1.38;;
75297;SDS011;63896;45.990;18.688;2023-06-10T12:00:16;2.42;;;1.40;;
75297;SDS011;63896;45.990;18.688;2023-06-10T12:03:20;1.75;;;1.52;;
75297;SDS011;63896;45.990;18.688;2023-06-10T12:06:25;2.23;;;1.50;;
75297;SDS011;63896;45.990;18.688;2023-06-10T12:09:29;2.38;;;1.65;;
75297;SDS011;63896;45.990;18.688;2023-06-10T12:12:34;1.70;;;1.58;;
75297;SDS011;63896;45.990;18.688;2023-06-10T12:15:39;1.85;;;1.40;;
75297;SDS011;63896;45.990;18.688;2023-06-10T12:18:44;2.08;;;1.73;;
75297;SDS011;63896;45.990;18.688;2023-06-10T12:21:49;2.47;;;1.50;;
75297;SDS011;63896;45.990;18.688;2023-06-10T12:25:01;1.92;;;1.65;;
75297;SDS011;63896;45.990;18.688;2023-06-10T12:28:06;2.40;;;2.20;;
75297;SDS011;63896;45.990;18.688;2023-06-10T12:31:12;2.30;;;1.90;;
75297;SDS011;63896;45.990;18.688;2023-06-10T12:34:15;3.20;;;2.20;;
75297;SDS011;63896;45.990;18.688;2023-06-10T12:37:18;3.93;;;2.50;;
75297;SDS011;63896;45.990;18.688;2023-06-10T12:40:25;4.70;;;2.67;;
75297;SDS011;63896;45.990;18.688;2023-06-10T12:43:32;3.85;;;2.85;;
75297;SDS011;63896;45.990;18.688;2023-06-10T12:46:36;4.03;;;2.78;;
75297;SDS011;63896;45.990;18.688;2023-06-10T12:49:40;2.85;;;2.65;;
75297;SDS011;63896;45.990;18.688;2023-06-10T12:52:43;2.93;;;2.60;;
75297;SDS011;63896;45.990;18.688;2023-06-10T12:55:45;3.28;;;2.88;;
75297;SDS011;63896;45.990;18.688;2023-06-10T12:58:49;2.60;;;2.33;;
75297;SDS011;63896;45.990;18.688;2023-06-10T13:02:31;3.10;;;2.40;;
75297;SDS011;63896;45.990;18.688;2023-06-10T13:05:35;3.85;;;2.58;;
75297;SDS011;63896;45.990;18.688;2023-06-10T13:08:41;3.43;;;2.77;;
75297;SDS011;63896;45.990;18.688;2023-06-10T13:11:44;5.15;;;2.60;;
75297;SDS011;63896;45.990;18.688;2023-06-10T13:14:47;6.75;;;3.35;;
75297;SDS011;63896;45.990;18.688;2023-06-10T13:17:50;6.82;;;3.33;;
75297;SDS011;63896;45.990;18.688;2023-06-10T13:20:53;9.32;;;2.47;;
75297;SDS011;63896;45.990;18.688;2023-06-10T13:23:56;3.23;;;2.00;;
75297;SDS011;63896;45.990;18.688;2023-06-10T13:26:59;4.60;;;2.40;;
75297;SDS011;63896;45.990;18.688;2023-06-10T13:30:02;7.60;;;2.78;;
75297;SDS011;63896;45.990;18.688;2023-06-10T13:33:05;6.18;;;3.00;;
75297;SDS011;63896;45.990;18.688;2023-06-10T13:36:08;8.93;;;3.38;;
75297;SDS011;63896;45.990;18.688;2023-06-10T13:39:12;4.03;;;3.27;;
75297;SDS011;63896;45.990;18.688;2023-06-10T13:42:16;8.85;;;2.92;;
75297;SDS011;63896;45.990;18.688;2023-06-10T13:45:27;5.97;;;3.45;;
75297;SDS011;63896;45.990;18.688;2023-06-10T13:48:31;6.25;;;2.72;;
75297;SDS011;63896;45.990;18.688;2023-06-10T13:51:33;5.20;;;2.25;;
75297;SDS011;63896;45.990;18.688;2023-06-10T13:54:36;2.30;;;1.50;;
75297;SDS011;63896;45.990;18.688;2023-06-10T13:57:39;2.13;;;1.50;;
75297;SDS011;63896;45.990;18.688;2023-06-10T14:00:45;3.67;;;1.92;;
75297;SDS011;63896;45.990;18.688;2023-06-10T14:03:48;2.10;;;1.90;;
75297;SDS011;63896;45.990;18.688;2023-06-10T14:06:51;4.40;;;2.50;;
75297;SDS011;63896;45.990;18.688;2023-06-10T14:09:54;8.67;;;3.30;;
75297;SDS011;63896;45.990;18.688;2023-06-10T14:13:01;6.82;;;3.10;;
75297;SDS011;63896;45.990;18.688;2023-06-10T14:16:05;4.85;;;3.50;;
75297;SDS011;63896;45.990;18.688;2023-06-10T14:19:27;5.25;;;3.40;;
75297;SDS011;63896;45.990;18.688;2023-06-10T14:22:30;3.75;;;3.28;;
75297;SDS011;63896;45.990;18.688;2023-06-10T14:25:33;6.53;;;3.23;;
75297;SDS011;63896;45.990;18.688;2023-06-10T14:28:36;4.43;;;3.10;;
75297;SDS011;63896;45.990;18.688;2023-06-10T14:31:39;4.32;;;3.45;;
75297;SDS011;63896;45.990;18.688;2023-06-10T14:38:11;5.18;;;3.10;;
75297;SDS011;63896;45.990;18.688;2023-06-10T14:41:14;6.17;;;3.70;;
75297;SDS011;63896;45.990;18.688;2023-06-10T14:44:17;3.55;;;3.13;;
75297;SDS011;63896;45.990;18.688;2023-06-10T14:47:20;5.13;;;3.85;;
75297;SDS011;63896;45.990;18.688;2023-06-10T14:50:23;5.40;;;3.25;;
75297;SDS011;63896;45.990;18.688;2023-06-10T14:53:25;5.20;;;3.80;;
75297;SDS011;63896;45.990;18.688;2023-06-10T14:56:28;5.03;;;4.00;;
75297;SDS011;63896;45.990;18.688;2023-06-10T14:59:31;5.55;;;3.80;;
75297;SDS011;63896;45.990;18.688;2023-06-10T15:02:34;5.45;;;3.92;;
75297;SDS011;63896;45.990;18.688;2023-06-10T15:05:37;4.90;;;4.43;;
75297;SDS011;63896;45.990;18.688;2023-06-10T15:08:40;4.78;;;4.25;;
75297;SDS011;63896;45.990;18.688;2023-06-10T15:11:43;5.80;;;4.77;;
75297;SDS011;63896;45.990;18.688;2023-06-10T15:14:46;6.47;;;5.07;;
75297;SDS011;63896;45.990;18.688;2023-06-10T15:17:49;6.90;;;4.85;;
75297;SDS011;63896;45.990;18.688;2023-06-10T15:20:52;7.28;;;4.85;;
75297;SDS011;63896;45.990;18.688;2023-06-10T15:23:55;8.10;;;4.45;;
75297;SDS011;63896;45.990;18.688;2023-06-10T15:26:58;5.27;;;4.23;;
75297;SDS011;63896;45.990;18.688;2023-06-10T15:30:01;6.72;;;4.55;;
75297;SDS011;63896;45.990;18.688;2023-06-10T15:33:04;6.03;;;4.57;;
75297;SDS011;63896;45.990;18.688;2023-06-10T15:36:09;11.15;;;4.80;;
75297;SDS011;63896;45.990;18.688;2023-06-10T15:39:11;6.32;;;4.40;;
75297;SDS011;63896;45.990;18.688;2023-06-10T15:42:14;5.87;;;4.00;;
75297;SDS011;63896;45.990;18.688;2023-06-10T15:45:17;3.80;;;3.50;;
75297;SDS011;63896;45.990;18.688;2023-06-10T15:48:20;4.15;;;3.75;;
75297;SDS011;63896;45.990;18.688;2023-06-10T15:51:23;4.32;;;3.22;;
75297;SDS011;63896;45.990;18.688;2023-06-10T15:54:26;2.72;;;2.50;;
75297;SDS011;63896;45.990;18.688;2023-06-10T15:57:29;4.17;;;2.30;;
75297;SDS011;63896;45.990;18.688;2023-06-10T16:00:32;3.28;;;2.00;;
75297;SDS011;63896;45.990;18.688;2023-06-10T16:03:35;4.35;;;2.28;;
75297;SDS011;63896;45.990;18.688;2023-06-10T16:06:38;2.88;;;1.80;;
75297;SDS011;63896;45.990;18.688;2023-06-10T16:09:41;2.83;;;2.17;;
75297;SDS011;63896;45.990;18.688;2023-06-10T16:12:44;2.20;;;1.90;;
75297;SDS011;63896;45.990;18.688;2023-06-10T16:15:47;2.72;;;1.90;;
75297;SDS011;63896;45.990;18.688;2023-06-10T16:18:49;3.38;;;2.20;;
75297;SDS011;63896;45.990;18.688;2023-06-10T16:21:52;2.30;;;2.10;;
75297;SDS011;63896;45.990;18.688;2023-06-10T16:24:55;3.42;;;2.50;;
75297;SDS011;63896;45.990;18.688;2023-06-10T16:27:58;4.20;;;2.67;;
75297;SDS011;63896;45.990;18.688;2023-06-10T16:31:01;4.60;;;2.90;;
75297;SDS011;63896;45.990;18.688;2023-06-10T16:34:05;3.50;;;3.20;;
75297;SDS011;63896;45.990;18.688;2023-06-10T16:37:08;5.03;;;2.67;;
75297;SDS011;63896;45.990;18.688;2023-06-10T16:40:11;4.35;;;2.70;;
75297;SDS011;63896;45.990;18.688;2023-06-10T16:43:14;2.87;;;2.50;;
75297;SDS011;63896;45.990;18.688;2023-06-10T16:46:17;4.15;;;2.40;;
75297;SDS011;63896;45.990;18.688;2023-06-10T16:49:21;4.13;;;2.22;;
75297;SDS011;63896;45.990;18.688;2023-06-10T16:52:24;3.15;;;2.75;;
75297;SDS011;63896;45.990;18.688;2023-06-10T16:55:27;2.90;;;2.63;;
75297;SDS011;63896;45.990;18.688;2023-06-10T16:58:29;7.87;;;2.80;;
75297;SDS011;63896;45.990;18.688;2023-06-10T17:01:32;3.20;;;2.83;;
75297;SDS011;63896;45.990;18.688;2023-06-10T17:04:35;3.90;;;3.00;;
75297;SDS011;63896;45.990;18.688;2023-06-10T17:07:38;2.90;;;2.60;;
75297;SDS011;63896;45.990;18.688;2023-06-10T17:10:41;3.90;;;3.17;;
75297;SDS011;63896;45.990;18.688;2023-06-10T17:13:45;3.57;;;2.97;;
75297;SDS011;63896;45.990;18.688;2023-06-10T17:16:48;3.63;;;2.97;;
75297;SDS011;63896;45.990;18.688;2023-06-10T17:19:51;4.18;;;3.28;;
75297;SDS011;63896;45.990;18.688;2023-06-10T17:22:54;3.50;;;3.10;;
75297;SDS011;63896;45.990;18.688;2023-06-10T17:25:57;4.25;;;3.50;;
75297;SDS011;63896;45.990;18.688;2023-06-10T17:28:59;3.53;;;3.23;;
75297;SDS011;63896;45.990;18.688;2023-06-10T17:32:04;5.93;;;3.25;;
75297;SDS011;63896;45.990;18.688;2023-06-10T17:35:08;4.10;;;3.70;;
75297;SDS011;63896;45.990;18.688;2023-06-10T17:38:11;4.10;;;3.70;;
75297;SDS011;63896;45.990;18.688;2023-06-10T17:41:15;4.72;;;3.78;;
75297;SDS011;63896;45.990;18.688;2023-06-10T17:44:19;3.93;;;3.50;;
75297;SDS011;63896;45.990;18.688;2023-06-10T17:47:26;6.00;;;4.13;;
75297;SDS011;63896;45.990;18.688;2023-06-10T17:50:29;5.25;;;4.13;;
75297;SDS011;63896;45.990;18.688;2023-06-10T17:53:32;4.55;;;4.13;;
75297;SDS011;63896;45.990;18.688;2023-06-10T17:56:35;6.18;;;4.15;;
75297;SDS011;63896;45.990;18.688;2023-06-10T17:59:38;5.53;;;4.03;;
75297;SDS011;63896;45.990;18.688;2023-06-10T18:02:41;6.78;;;4.35;;
75297;SDS011;63896;45.990;18.688;2023-06-10T18:05:44;5.25;;;4.57;;
75297;SDS011;63896;45.990;18.688;2023-06-10T18:08:47;7.03;;;4.18;;
75297;SDS011;63896;45.990;18.688;2023-06-10T18:11:49;6.32;;;4.40;;
75297;SDS011;63896;45.990;18.688;2023-06-10T18:14:52;7.50;;;5.47;;
75297;SDS011;63896;45.990;18.688;2023-06-10T18:17:55;6.80;;;4.80;;